Time;durP1;ratioP1;P1;durP2;ratioP2;P2;SDS_P1;SDS_P2;PMS_P1;PMS_P2;Temp;Humidity;BMP_temperature;BMP_pressure;BME280_temperature;BME280_humidity;BME280_pressure;Samples;Min_cycle;Max_cycle;Signal;HPM_P1;HPM_P2
2022/09/16 00:00:53;;;;;;;7.22;3.45;;;12.80;99.90;;;;;;5052272;28;20048;-47
2022/09/16 00:03:18;;;;;;;7.90;3.65;;;12.70;99.90;;;;;;5052322;28;20479;-50
2022/09/16 00:05:48;;;;;;;7.25;3.60;;;12.70;99.90;;;;;;5051339;28;20036;-47
2022/09/16 00:08:15;;;;;;;9.50;3.70;;;12.70;99.90;;;;;;5052314;28;20100;-47
2022/09/16 00:10:42;;;;;;;8.68;3.88;;;12.70;99.90;;;;;;5051920;28;20535;-49
2022/09/16 00:13:08;;;;;;;5.88;3.50;;;12.70;99.90;;;;;;5052467;28;20033;-51
2022/09/16 00:15:34;;;;;;;7.90;3.90;;;12.70;99.90;;;;;;5034160;28;20549;-47
2022/09/16 00:17:59;;;;;;;8.20;3.83;;;12.70;99.90;;;;;;5045309;28;20028;-50
2022/09/16 00:20:26;;;;;;;7.15;3.35;;;12.60;99.90;;;;;;5027327;28;20487;-51
2022/09/16 00:22:52;;;;;;;8.90;4.07;;;12.60;99.90;;;;;;5051884;28;20035;-49
2022/09/16 00:25:18;;;;;;;17.05;4.88;;;12.60;99.90;;;;;;5051969;28;20028;-46
2022/09/16 00:27:46;;;;;;;6.90;3.17;;;12.60;99.90;;;;;;5051401;28;20028;-46
2022/09/16 00:30:11;;;;;;;7.20;3.85;;;12.60;99.90;;;;;;5051013;28;20033;-50
2022/09/16 00:32:37;;;;;;;8.63;3.70;;;12.60;99.90;;;;;;5034248;28;20405;-47
2022/09/16 00:35:03;;;;;;;13.60;4.13;;;12.60;99.90;;;;;;5051827;28;20071;-50
2022/09/16 00:37:31;;;;;;;8.45;3.80;;;12.60;99.90;;;;;;5051958;28;20067;-47
2022/09/16 00:39:57;;;;;;;7.00;3.53;;;12.60;99.90;;;;;;5051695;28;20033;-47
2022/09/16 00:42:22;;;;;;;9.50;3.60;;;12.60;99.90;;;;;;5051578;28;20037;-50
2022/09/16 00:44:53;;;;;;;7.43;3.20;;;12.60;99.90;;;;;;5051398;28;20025;-48
2022/09/16 00:47:30;;;;;;;5.28;2.95;;;12.60;99.90;;;;;;5051828;28;20029;-47
2022/09/16 00:50:01;;;;;;;7.68;3.38;;;12.60;99.90;;;;;;5051410;28;20506;-49
2022/09/16 00:52:29;;;;;;;9.35;3.55;;;12.60;99.90;;;;;;5051326;28;20018;-49
2022/09/16 00:54:56;;;;;;;10.13;3.85;;;12.50;99.90;;;;;;5051439;28;20020;-48
2022/09/16 00:57:22;;;;;;;10.95;4.13;;;12.50;99.90;;;;;;5051492;28;20446;-50
2022/09/16 00:59:52;;;;;;;5.70;2.88;;;12.50;99.90;;;;;;5051276;28;20471;-47
2022/09/16 01:02:20;;;;;;;7.32;3.72;;;12.50;99.90;;;;;;5051215;28;20036;-47
2022/09/16 01:04:50;;;;;;;8.00;3.90;;;12.40;99.90;;;;;;5051201;28;20392;-46
2022/09/16 01:07:20;;;;;;;9.88;4.05;;;12.40;99.90;;;;;;5051111;28;20029;-48
2022/09/16 01:09:45;;;;;;;9.82;3.78;;;12.40;99.90;;;;;;5051333;28;20025;-46
2022/09/16 01:12:11;;;;;;;8.90;3.35;;;12.40;99.90;;;;;;5048749;28;20052;-46
2022/09/16 01:14:52;;;;;;;7.38;3.15;;;12.40;99.90;;;;;;5051307;28;20392;-46
2022/09/16 01:17:37;;;;;;;8.77;3.22;;;12.30;99.90;;;;;;5049363;28;20017;-48
2022/09/16 01:20:09;;;;;;;7.95;3.33;;;12.30;99.90;;;;;;5040928;28;20108;-47
2022/09/16 01:23:15;;;;;;;9.77;3.65;;;12.20;99.90;;;;;;5050732;28;20503;-47
2022/09/16 01:26:08;;;;;;;5.97;3.28;;;12.30;99.90;;;;;;5028768;28;20029;-46
2022/09/16 01:28:46;;;;;;;7.88;3.20;;;12.20;99.90;;;;;;5040955;28;20056;-47
2022/09/16 01:31:37;;;;;;;9.15;3.15;;;12.20;99.90;;;;;;5050540;28;20040;-48
2022/09/16 01:34:26;;;;;;;5.57;3.05;;;12.20;99.90;;;;;;5050768;28;20022;-50
2022/09/16 01:37:34;;;;;;;9.10;3.27;;;12.30;99.90;;;;;;5039177;28;20052;-50
2022/09/16 01:40:15;;;;;;;7.05;3.20;;;12.20;99.90;;;;;;5040429;28;20510;-47
2022/09/16 01:42:48;;;;;;;9.10;2.97;;;12.20;99.90;;;;;;5050607;28;20041;-52
2022/09/16 01:45:14;;;;;;;6.82;3.35;;;12.20;99.90;;;;;;5050519;28;20490;-50
2022/09/16 01:47:53;;;;;;;6.38;2.95;;;12.20;99.90;;;;;;5050840;28;20120;-53
2022/09/16 01:50:36;;;;;;;5.53;2.75;;;12.20;99.90;;;;;;5050775;28;20025;-47
2022/09/16 01:53:20;;;;;;;5.28;3.20;;;12.20;99.90;;;;;;5048184;28;20103;-48
2022/09/16 01:55:56;;;;;;;7.10;3.00;;;12.20;99.90;;;;;;5050503;28;20013;-46
2022/09/16 01:58:27;;;;;;;6.88;2.65;;;12.30;99.90;;;;;;5050574;28;20064;-46
2022/09/16 02:01:00;;;;;;;6.38;3.38;;;12.30;99.90;;;;;;5050309;28;20083;-50
2022/09/16 02:03:32;;;;;;;6.90;3.03;;;12.30;99.90;;;;;;5050652;28;20021;-46
2022/09/16 02:06:17;;;;;;;6.05;2.90;;;12.30;99.90;;;;;;5050478;28;20017;-49
2022/09/16 02:09:00;;;;;;;6.68;2.88;;;12.30;99.90;;;;;;5050549;28;20025;-48
2022/09/16 02:11:26;;;;;;;10.65;3.40;;;12.30;99.90;;;;;;5050113;28;20045;-46
2022/09/16 02:14:01;;;;;;;8.07;2.90;;;12.30;99.90;;;;;;5050498;28;20032;-47
2022/09/16 02:16:39;;;;;;;5.95;2.95;;;12.30;99.90;;;;;;5050445;28;20029;-47
2022/09/16 02:19:10;;;;;;;12.30;3.33;;;12.30;99.90;;;;;;5036468;28;20827;-46
2022/09/16 02:21:39;;;;;;;8.90;2.85;;;12.30;99.90;;;;;;5049371;28;20075;-46
2022/09/16 02:24:10;;;;;;;4.82;2.60;;;12.30;99.90;;;;;;5050269;28;20036;-47
2022/09/16 02:26:43;;;;;;;6.10;2.53;;;12.30;99.90;;;;;;5050319;28;20033;-47
2022/09/16 02:29:16;;;;;;;5.80;2.30;;;12.30;99.90;;;;;;5052632;28;20060;-46
2022/09/16 02:31:44;;;;;;;6.60;2.30;;;12.30;99.90;;;;;;5054032;28;20506;-46
2022/09/16 02:34:17;;;;;;;7.95;2.83;;;12.30;99.90;;;;;;5053975;28;20108;-49
2022/09/16 02:36:49;;;;;;;5.30;2.70;;;12.30;99.90;;;;;;5053894;28;20555;-50
2022/09/16 02:39:20;;;;;;;7.65;2.90;;;12.30;99.90;;;;;;5053986;28;20542;-46
2022/09/16 02:41:46;;;;;;;9.63;3.40;;;12.30;99.90;;;;;;5053975;28;20090;-48
2022/09/16 02:44:12;;;;;;;4.35;2.58;;;12.20;99.90;;;;;;5053738;28;20112;-47
2022/09/16 02:46:59;;;;;;;7.53;3.00;;;12.20;99.90;;;;;;5036032;28;20144;-47
2022/09/16 02:49:50;;;;;;;6.65;3.03;;;12.20;99.90;;;;;;5053835;28;20504;-48
2022/09/16 02:52:47;;;;;;;4.32;2.30;;;12.20;99.90;;;;;;5054040;28;20060;-48
2022/09/16 02:55:23;;;;;;;5.72;2.47;;;12.20;99.90;;;;;;5053310;28;20120;-50
2022/09/16 02:57:50;;;;;;;7.32;2.40;;;12.20;99.90;;;;;;5053523;28;20033;-46
2022/09/16 03:00:15;;;;;;;7.20;2.10;;;12.20;99.90;;;;;;5053669;28;20103;-50
2022/09/16 03:02:42;;;;;;;5.90;2.20;;;12.20;99.90;;;;;;5053180;28;20212;-47
2022/09/16 03:05:08;;;;;;;5.43;2.08;;;12.20;99.90;;;;;;5053611;28;20017;-47
2022/09/16 03:07:35;;;;;;;6.53;3.30;;;12.20;99.90;;;;;;5053634;28;20033;-51
2022/09/16 03:10:02;;;;;;;3.60;1.92;;;12.20;99.90;;;;;;5053304;28;20041;-50
2022/09/16 03:12:30;;;;;;;6.20;2.17;;;12.20;99.90;;;;;;5035511;28;20092;-49
2022/09/16 03:15:26;;;;;;;5.30;2.30;;;12.10;99.90;;;;;;5053269;28;20017;-51
2022/09/16 03:17:55;;;;;;;7.97;2.92;;;12.10;99.90;;;;;;5047261;28;20025;-48
2022/09/16 03:20:29;;;;;;;8.68;2.35;;;12.10;99.90;;;;;;5045369;28;20470;-50
2022/09/16 03:23:19;;;;;;;4.20;2.42;;;12.00;99.90;;;;;;5052488;28;20456;-51
2022/09/16 03:26:47;;;;;;;5.20;2.30;;;12.00;99.90;;;;;;5053211;28;20040;-54
2022/09/16 03:29:39;;;;;;;8.98;2.40;;;12.00;99.90;;;;;;5030596;28;20047;-52
2022/09/16 03:32:22;;;;;;;6.47;2.40;;;12.00;99.90;;;;;;5030838;28;20107;-53
2022/09/16 03:34:58;;;;;;;4.35;2.22;;;12.00;99.90;;;;;;5037865;28;20037;-52
2022/09/16 03:37:27;;;;;;;6.28;2.40;;;12.00;99.90;;;;;;5053817;28;20037;-48
2022/09/16 03:39:56;;;;;;;9.23;2.25;;;12.00;99.90;;;;;;5053371;28;20025;-49
2022/09/16 03:42:23;;;;;;;3.63;2.03;;;12.00;99.90;;;;;;5053923;28;20036;-51
2022/09/16 03:44:48;;;;;;;4.88;2.20;;;12.00;99.90;;;;;;5054253;28;20384;-49
2022/09/16 03:47:15;;;;;;;5.50;1.80;;;12.00;99.90;;;;;;5053439;28;20045;-48
2022/09/16 03:49:41;;;;;;;3.80;1.85;;;12.00;99.90;;;;;;5052970;28;20017;-52
2022/09/16 03:52:07;;;;;;;7.25;1.90;;;12.00;99.90;;;;;;5052511;28;20036;-48
2022/09/16 03:54:34;;;;;;;5.25;2.00;;;12.00;99.90;;;;;;5052723;28;20054;-51
2022/09/16 03:57:00;;;;;;;5.55;1.95;;;12.00;99.90;;;;;;5052902;28;20032;-50
2022/09/16 03:59:27;;;;;;;3.88;1.70;;;11.90;99.90;;;;;;5039677;28;20488;-47
2022/09/16 04:01:52;;;;;;;5.80;2.20;;;11.90;99.90;;;;;;5035083;28;20400;-51
2022/09/16 04:04:18;;;;;;;3.25;2.05;;;11.90;99.90;;;;;;5020622;28;20024;-51
2022/09/16 04:06:43;;;;;;;6.35;2.13;;;11.90;99.90;;;;;;5048763;28;20029;-47
2022/09/16 04:09:11;;;;;;;5.38;1.90;;;11.90;99.90;;;;;;5042311;28;20021;-49
2022/09/16 04:11:37;;;;;;;3.63;1.63;;;11.90;99.90;;;;;;5052074;28;20384;-47
2022/09/16 04:14:03;;;;;;;2.92;1.50;;;11.90;99.90;;;;;;5052009;28;20029;-47
2022/09/16 04:16:30;;;;;;;2.97;1.60;;;11.80;99.90;;;;;;5038417;28;20025;-46
2022/09/16 04:18:55;;;;;;;3.00;1.65;;;11.80;99.90;;;;;;5051980;28;20100;-52
2022/09/16 04:21:22;;;;;;;4.55;1.70;;;11.70;99.90;;;;;;5051914;28;20120;-52
2022/09/16 04:23:48;;;;;;;6.28;1.80;;;11.70;99.90;;;;;;5052076;28;20105;-47
2022/09/16 04:26:14;;;;;;;3.45;1.90;;;11.60;99.90;;;;;;5052256;28;20056;-51
2022/09/16 04:28:40;;;;;;;3.95;1.63;;;11.60;99.90;;;;;;5051976;28;20503;-47
2022/09/16 04:31:10;;;;;;;4.75;1.65;;;11.50;99.90;;;;;;5052204;28;20061;-48
2022/09/16 04:33:37;;;;;;;5.32;1.90;;;11.50;99.90;;;;;;5037841;28;20021;-50
2022/09/16 04:36:11;;;;;;;4.60;1.70;;;11.50;99.90;;;;;;5051962;28;20025;-55
2022/09/16 04:38:37;;;;;;;4.53;1.70;;;11.40;99.90;;;;;;5052157;28;20028;-54
2022/09/16 04:41:06;;;;;;;3.05;1.80;;;11.30;99.90;;;;;;5051602;28;20031;-48
2022/09/16 04:43:32;;;;;;;4.33;1.50;;;11.20;99.90;;;;;;5051885;28;20029;-47
2022/09/16 04:45:57;;;;;;;6.72;1.50;;;11.20;99.90;;;;;;5051626;28;20284;-50
2022/09/16 04:48:24;;;;;;;3.95;1.63;;;11.10;99.90;;;;;;5051677;28;20082;-56
2022/09/16 04:50:51;;;;;;;4.05;1.63;;;11.00;99.90;;;;;;5050591;28;20061;-47
2022/09/16 04:53:18;;;;;;;7.13;1.70;;;11.00;99.90;;;;;;5051776;28;20028;-48
2022/09/16 04:55:43;;;;;;;3.38;1.70;;;10.90;99.90;;;;;;5051500;28;20025;-50
2022/09/16 04:58:09;;;;;;;4.63;1.83;;;10.80;99.90;;;;;;5051749;28;20083;-47
2022/09/16 05:00:35;;;;;;;3.42;1.65;;;10.80;99.90;;;;;;5051352;28;20541;-47
2022/09/16 05:03:00;;;;;;;3.42;1.60;;;10.70;99.90;;;;;;5051358;28;20033;-49
2022/09/16 05:05:26;;;;;;;3.65;1.45;;;10.70;99.90;;;;;;5051255;28;20435;-47
2022/09/16 05:07:51;;;;;;;6.15;1.83;;;10.70;99.90;;;;;;5037144;28;20047;-49
2022/09/16 05:10:17;;;;;;;3.75;1.60;;;10.70;99.90;;;;;;5051318;28;20048;-54
2022/09/16 05:12:43;;;;;;;3.55;1.58;;;10.70;99.90;;;;;;5051096;28;20048;-51
2022/09/16 05:15:08;;;;;;;5.75;1.55;;;10.60;99.90;;;;;;5051136;28;20510;-54
2022/09/16 05:17:34;;;;;;;4.05;1.30;;;10.70;99.90;;;;;;5051211;28;20036;-54
2022/09/16 05:20:00;;;;;;;5.28;1.67;;;10.70;99.90;;;;;;5050684;28;20376;-53
2022/09/16 05:22:25;;;;;;;6.28;1.80;;;10.70;99.90;;;;;;5051078;28;20041;-51
2022/09/16 05:24:51;;;;;;;2.50;1.38;;;10.80;99.90;;;;;;5051027;28;20087;-49
2022/09/16 05:27:16;;;;;;;4.70;1.73;;;10.80;99.90;;;;;;5051052;28;20021;-46
2022/09/16 05:29:42;;;;;;;4.47;1.40;;;10.80;99.90;;;;;;5051089;28;20102;-51
2022/09/16 05:32:08;;;;;;;2.75;1.30;;;10.90;99.90;;;;;;5032896;28;20033;-46
2022/09/16 05:34:35;;;;;;;3.88;1.40;;;10.90;99.90;;;;;;5050923;28;20491;-48
2022/09/16 05:37:01;;;;;;;2.38;1.02;;;10.90;99.90;;;;;;5050743;28;20021;-46
2022/09/16 05:39:27;;;;;;;3.13;1.50;;;11.00;99.90;;;;;;5050944;28;20086;-47
2022/09/16 05:41:58;;;;;;;3.88;1.40;;;11.00;99.90;;;;;;5050712;28;20453;-51
2022/09/16 05:44:25;;;;;;;3.60;1.60;;;11.00;99.90;;;;;;5050922;28;20199;-46
2022/09/16 05:46:51;;;;;;;5.15;1.60;;;11.00;99.90;;;;;;5050722;28;20037;-50
2022/09/16 05:49:19;;;;;;;7.68;2.17;;;11.00;99.90;;;;;;5050884;28;20459;-48
2022/09/16 05:51:46;;;;;;;3.83;1.65;;;11.10;99.90;;;;;;5050526;28;20103;-51
2022/09/16 05:54:12;;;;;;;4.13;1.40;;;11.10;99.90;;;;;;5050752;28;20033;-47
2022/09/16 05:56:38;;;;;;;6.15;1.55;;;11.10;99.90;;;;;;5050891;28;20098;-47
2022/09/16 05:59:04;;;;;;;3.50;1.30;;;11.20;99.90;;;;;;5050521;28;20025;-47
2022/09/16 06:01:33;;;;;;;4.57;1.63;;;11.20;99.90;;;;;;5050519;28;20048;-49
2022/09/16 06:04:03;;;;;;;6.23;1.60;;;11.30;99.90;;;;;;5054593;28;20037;-51
2022/09/16 06:06:38;;;;;;;3.30;1.40;;;11.30;99.90;;;;;;5050806;28;20287;-52
2022/09/16 06:09:10;;;;;;;2.70;1.42;;;11.30;99.90;;;;;;5046047;28;20025;-48
2022/09/16 06:11:39;;;;;;;3.97;1.40;;;11.40;99.90;;;;;;5054437;28;20033;-49
2022/09/16 06:14:05;;;;;;;5.55;1.80;;;11.40;99.90;;;;;;5054684;28;20492;-49
2022/09/16 06:16:34;;;;;;;3.63;1.30;;;11.40;99.90;;;;;;5054489;28;20426;-51
2022/09/16 06:19:02;;;;;;;7.80;1.50;;;11.50;99.90;;;;;;5054747;28;20044;-52
2022/09/16 06:21:29;;;;;;;5.27;1.37;;;11.50;99.90;;;;;;5054138;28;20032;-48
2022/09/16 06:23:55;;;;;;;7.68;1.88;;;11.50;99.90;;;;;;5054541;28;20092;-47
2022/09/16 06:26:23;;;;;;;3.50;1.40;;;11.60;99.90;;;;;;5054190;28;20052;-47
2022/09/16 06:28:50;;;;;;;4.15;1.58;;;11.60;99.90;;;;;;5046165;28;20025;-46
2022/09/16 06:31:17;;;;;;;3.00;1.38;;;11.60;99.90;;;;;;5050182;28;20039;-53
2022/09/16 06:33:44;;;;;;;4.00;1.48;;;11.60;99.90;;;;;;5053976;28;20029;-46
2022/09/16 06:36:21;;;;;;;4.45;1.35;;;11.80;99.90;;;;;;5054035;28;20055;-50
2022/09/16 06:38:48;;;;;;;5.07;1.55;;;11.80;99.90;;;;;;5053723;28;20479;-53
2022/09/16 06:41:15;;;;;;;3.47;1.23;;;11.80;99.90;;;;;;5054127;28;20048;-46
2022/09/16 06:43:41;;;;;;;4.72;1.42;;;11.80;99.90;;;;;;5028547;28;20044;-50
2022/09/16 06:46:12;;;;;;;4.53;1.17;;;11.90;99.90;;;;;;5053813;28;20025;-49
2022/09/16 06:48:39;;;;;;;3.13;1.40;;;12.00;99.90;;;;;;5029957;28;20076;-47
2022/09/16 06:51:09;;;;;;;5.25;1.50;;;12.00;99.90;;;;;;5053515;28;20492;-46
2022/09/16 06:53:36;;;;;;;2.95;1.63;;;12.10;99.90;;;;;;5053764;28;20047;-46
2022/09/16 06:56:06;;;;;;;4.95;1.35;;;12.20;99.90;;;;;;5053667;28;20021;-49
2022/09/16 06:58:34;;;;;;;1.98;1.10;;;12.30;99.90;;;;;;5053691;28;20033;-49
2022/09/16 07:01:05;;;;;;;4.28;1.45;;;12.40;99.90;;;;;;5025354;28;20032;-49
2022/09/16 07:03:30;;;;;;;4.97;1.35;;;12.50;99.90;;;;;;5053534;28;20025;-49
2022/09/16 07:06:01;;;;;;;3.00;1.38;;;12.60;99.90;;;;;;5053313;28;20028;-47
2022/09/16 07:08:31;;;;;;;3.95;1.60;;;12.70;99.90;;;;;;5039409;28;20096;-49
2022/09/16 07:10:58;;;;;;;5.18;1.65;;;12.80;99.90;;;;;;5053415;28;20094;-47
2022/09/16 07:13:25;;;;;;;4.72;1.60;;;12.90;99.90;;;;;;5052977;28;20573;-46
2022/09/16 07:15:50;;;;;;;5.18;1.80;;;13.00;99.90;;;;;;5053130;28;20074;-51
2022/09/16 07:18:16;;;;;;;3.95;1.50;;;13.00;99.90;;;;;;5053181;28;20049;-52
2022/09/16 07:20:42;;;;;;;3.47;1.45;;;13.00;99.90;;;;;;5052984;28;20037;-46
2022/09/16 07:23:07;;;;;;;7.68;1.90;;;13.00;99.90;;;;;;5053245;28;20033;-47
2022/09/16 07:25:34;;;;;;;4.32;1.50;;;13.10;99.90;;;;;;5053279;28;20029;-55
2022/09/16 07:28:00;;;;;;;9.80;1.73;;;13.10;99.90;;;;;;5053338;28;20418;-50
2022/09/16 07:30:28;;;;;;;3.92;1.60;;;13.10;99.90;;;;;;5053139;28;20032;-53
2022/09/16 07:32:54;;;;;;;3.58;1.42;;;13.30;99.90;;;;;;5052050;28;20032;-50
2022/09/16 07:35:20;;;;;;;4.95;1.27;;;13.90;99.90;;;;;;5052949;28;20467;-50
2022/09/16 07:37:46;;;;;;;4.43;1.50;;;14.80;99.90;;;;;;5053160;28;20208;-52
2022/09/16 07:40:12;;;;;;;3.45;1.25;;;15.30;99.90;;;;;;5052836;28;20559;-49
2022/09/16 07:42:38;;;;;;;4.65;1.30;;;15.80;99.90;;;;;;5052943;28;20033;-46
2022/09/16 07:45:05;;;;;;;6.63;1.60;;;16.10;99.90;;;;;;5053048;28;20108;-50
2022/09/16 07:47:31;;;;;;;3.33;1.27;;;16.50;99.90;;;;;;5052769;28;20108;-48
2022/09/16 07:49:57;;;;;;;3.97;1.27;;;17.30;99.90;;;;;;5052382;28;20439;-44
2022/09/16 07:52:28;;;;;;;6.53;1.60;;;18.00;99.90;;;;;;5052695;28;20040;-48
2022/09/16 07:54:57;;;;;;;3.72;1.70;;;18.80;99.90;;;;;;5052906;28;20036;-50
2022/09/16 07:57:22;;;;;;;4.82;1.42;;;19.70;99.90;;;;;;5051101;28;21078;-50
2022/09/16 07:59:49;;;;;;;5.82;1.65;;;19.90;99.90;;;;;;5034499;28;20021;-50
2022/09/16 08:02:15;;;;;;;5.57;1.35;;;19.80;99.90;;;;;;5052414;28;20029;-48
2022/09/16 08:04:41;;;;;;;4.22;1.48;;;19.70;99.90;;;;;;5052187;28;20013;-46
2022/09/16 08:07:07;;;;;;;3.60;1.35;;;19.70;99.90;;;;;;5043311;28;20051;-45
2022/09/16 08:09:33;;;;;;;4.57;1.73;;;19.50;99.90;;;;;;5047244;28;20479;-45
2022/09/16 08:12:02;;;;;;;6.32;1.50;;;19.30;99.90;;;;;;5050911;28;20131;-51
2022/09/16 08:14:27;;;;;;;3.67;1.20;;;19.30;99.90;;;;;;5039485;28;20484;-55
2022/09/16 08:16:53;;;;;;;3.58;1.50;;;19.10;99.90;;;;;;5051571;28;20276;-47
2022/09/16 08:19:22;;;;;;;5.00;1.77;;;19.20;99.90;;;;;;5052103;28;20021;-46
2022/09/16 08:21:47;;;;;;;6.20;2.05;;;19.30;99.90;;;;;;5050858;28;20043;-52
2022/09/16 08:24:13;;;;;;;6.63;1.67;;;19.40;99.90;;;;;;5030139;28;20108;-50
2022/09/16 08:26:39;;;;;;;4.47;1.50;;;20.10;99.90;;;;;;5044615;28;20041;-51
2022/09/16 08:29:05;;;;;;;5.13;1.73;;;20.70;98.70;;;;;;5050992;28;20025;-48
2022/09/16 08:31:31;;;;;;;3.72;1.30;;;21.00;97.80;;;;;;5050717;28;20021;-50
2022/09/16 08:33:56;;;;;;;6.13;1.98;;;21.20;98.40;;;;;;5049204;28;20063;-52
2022/09/16 08:36:24;;;;;;;4.20;1.52;;;21.60;96.40;;;;;;5050999;28;20029;-46
2022/09/16 08:38:52;;;;;;;4.88;1.60;;;21.90;97.10;;;;;;5032774;28;20364;-45
2022/09/16 08:41:45;;;;;;;3.88;1.40;;;22.40;95.60;;;;;;5049011;28;20071;-53
2022/09/16 08:44:19;;;;;;;5.57;1.73;;;22.30;94.30;;;;;;5050512;28;20029;-54
2022/09/16 08:47:05;;;;;;;5.70;1.80;;;22.20;94.20;;;;;;5077729;27;20807;-52
2022/09/16 08:49:43;;;;;;;3.33;1.58;;;21.60;93.80;;;;;;5066844;28;20025;-52
2022/09/16 08:52:30;;;;;;;5.78;2.00;;;22.00;94.80;;;;;;5067195;28;20035;-53
2022/09/16 08:55:04;;;;;;;5.47;1.65;;;22.00;94.10;;;;;;5061247;28;20078;-53
2022/09/16 08:57:35;;;;;;;5.07;1.52;;;22.10;95.10;;;;;;5067535;28;20035;-57
2022/09/16 09:00:06;;;;;;;6.55;2.10;;;22.70;92.90;;;;;;5067810;28;20020;-48
2022/09/16 09:02:36;;;;;;;4.20;1.48;;;24.10;93.10;;;;;;5067790;28;20027;-57
2022/09/16 09:05:05;;;;;;;3.53;1.65;;;25.40;89.10;;;;;;5065764;28;20086;-52
2022/09/16 09:07:56;;;;;;;6.25;1.83;;;26.30;86.70;;;;;;5064135;28;20039;-47
2022/09/16 09:10:42;;;;;;;4.00;1.42;;;27.20;84.40;;;;;;5064105;28;20021;-46
2022/09/16 09:13:16;;;;;;;3.78;1.60;;;27.70;78.80;;;;;;5065619;28;20098;-50
2022/09/16 09:15:42;;;;;;;4.63;1.60;;;28.10;75.00;;;;;;5067292;28;20024;-47
2022/09/16 09:18:32;;;;;;;5.28;1.77;;;28.50;73.10;;;;;;5063769;28;20037;-48
2022/09/16 09:21:19;;;;;;;3.75;1.52;;;29.10;73.50;;;;;;5061697;28;20066;-57
2022/09/16 09:24:03;;;;;;;5.35;1.40;;;29.10;74.50;;;;;;5065595;28;20029;-49
2022/09/16 09:26:48;;;;;;;4.05;1.38;;;29.60;68.00;;;;;;5063921;28;20029;-52
2022/09/16 09:29:22;;;;;;;4.95;1.20;;;30.00;66.00;;;;;;5061512;28;20025;-50
2022/09/16 09:32:04;;;;;;;5.15;1.50;;;29.00;64.20;;;;;;5063977;28;20029;-47
2022/09/16 09:35:00;;;;;;;3.22;1.00;;;28.10;66.20;;;;;;5060366;28;20036;-51
2022/09/16 09:37:34;;;;;;;3.20;1.02;;;27.50;67.10;;;;;;5059204;28;20031;-47
2022/09/16 09:40:15;;;;;;;7.55;1.42;;;27.70;68.00;;;;;;5064648;28;20025;-53
2022/09/16 09:42:55;;;;;;;4.72;1.50;;;28.30;68.00;;;;;;5065018;28;20051;-48
2022/09/16 09:45:30;;;;;;;6.45;1.45;;;28.70;65.00;;;;;;5066450;28;20090;-54
2022/09/16 09:48:09;;;;;;;6.53;1.60;;;29.30;65.80;;;;;;5066329;28;20059;-45
2022/09/16 09:50:44;;;;;;;3.15;1.10;;;29.00;62.10;;;;;;5061632;28;20028;-48
2022/09/16 09:53:24;;;;;;;3.05;0.90;;;29.50;63.90;;;;;;5055600;28;20087;-48
2022/09/16 09:56:11;;;;;;;3.53;1.30;;;29.80;60.80;;;;;;5061306;28;20494;-43
2022/09/16 09:58:47;;;;;;;1.95;0.88;;;28.80;59.70;;;;;;5051813;28;20057;-45
2022/09/16 10:01:14;;;;;;;3.38;1.20;;;28.20;62.90;;;;;;5051973;28;20475;-45
2022/09/16 10:03:40;;;;;;;2.28;0.90;;;27.40;63.70;;;;;;5052224;28;20090;-48
2022/09/16 10:06:08;;;;;;;5.85;1.15;;;27.60;65.20;;;;;;5052957;28;20028;-46
2022/09/16 10:08:42;;;;;;;4.33;1.17;;;28.30;64.70;;;;;;5053483;28;20070;-51
2022/09/16 10:11:18;;;;;;;3.40;1.23;;;28.90;60.90;;;;;;5052542;28;20035;-43
2022/09/16 10:14:04;;;;;;;2.55;1.23;;;28.40;57.30;;;;;;5043460;28;20033;-43
2022/09/16 10:16:35;;;;;;;5.00;1.63;;;27.10;61.20;;;;;;5050866;28;20430;-45
2022/09/16 10:19:16;;;;;;;4.97;1.02;;;25.80;66.20;;;;;;5050088;28;20439;-51
2022/09/16 10:21:46;;;;;;;4.57;1.27;;;26.40;65.70;;;;;;5051754;28;20021;-45
2022/09/16 10:24:35;;;;;;;4.95;1.38;;;26.70;65.90;;;;;;5051372;28;20048;-49
2022/09/16 10:27:18;;;;;;;2.58;1.23;;;27.10;65.40;;;;;;5051691;28;20025;-48
2022/09/16 10:29:43;;;;;;;4.22;1.48;;;28.20;65.20;;;;;;5051254;28;20146;-46
2022/09/16 10:32:16;;;;;;;5.05;1.10;;;29.30;65.50;;;;;;5051000;28;20448;-46
2022/09/16 10:34:42;;;;;;;3.17;1.35;;;29.10;58.50;;;;;;5049294;28;20543;-45
2022/09/16 10:37:13;;;;;;;4.13;1.60;;;29.60;58.90;;;;;;5051812;28;20031;-44
2022/09/16 10:39:42;;;;;;;3.83;1.20;;;28.40;58.60;;;;;;5051526;28;20025;-46
2022/09/16 10:42:29;;;;;;;3.42;1.10;;;29.40;62.60;;;;;;5051141;28;20083;-45
2022/09/16 10:45:08;;;;;;;4.57;1.60;;;30.00;60.70;;;;;;5051254;28;20114;-49
2022/09/16 10:47:35;;;;;;;;;;;29.00;57.00;;;;;;5051808;28;20389;-47
2022/09/16 10:50:04;;;;;;;2.30;0.75;;;27.10;58.40;;;;;;5051506;28;19912;-57
2022/09/16 10:52:39;;;;;;;2.92;1.00;;;27.20;61.60;;;;;;5051544;28;20028;-48
2022/09/16 10:55:35;;;;;;;2.63;1.17;;;27.70;62.60;;;;;;5050686;28;20028;-41
2022/09/16 10:58:17;;;;;;;4.10;1.13;;;28.00;60.80;;;;;;5028549;28;20048;-42
2022/09/16 11:01:25;;;;;;;2.13;1.20;;;27.80;59.80;;;;;;5050321;28;20040;-45
2022/09/16 11:04:15;;;;;;;3.80;0.90;;;26.80;59.50;;;;;;5048060;28;20107;-53
2022/09/16 11:07:02;;;;;;;3.15;0.90;;;26.70;60.60;;;;;;5049762;28;20083;-46
2022/09/16 11:09:55;;;;;;;2.70;0.98;;;26.60;67.70;;;;;;5049662;28;20021;-44
2022/09/16 11:12:39;;;;;;;4.05;0.93;;;26.80;60.60;;;;;;5052030;28;20009;-50
2022/09/16 11:15:36;;;;;;;3.58;1.10;;;26.00;59.00;;;;;;5051612;28;20475;-47
2022/09/16 11:18:22;;;;;;;4.25;1.30;;;24.60;61.50;;;;;;5042999;28;20041;-45
2022/09/16 11:21:25;;;;;;;2.33;1.08;;;23.50;65.60;;;;;;5040385;28;20136;-45
2022/09/16 11:24:23;;;;;;;1.63;1.00;;;23.80;65.90;;;;;;5049330;28;20079;-50
2022/09/16 11:27:07;;;;;;;3.25;0.95;;;24.00;67.80;;;;;;5048122;28;20075;-45
2022/09/16 11:29:45;;;;;;;2.97;1.17;;;24.10;67.30;;;;;;5042918;28;20025;-47
2022/09/16 11:32:10;;;;;;;3.08;1.35;;;24.40;66.10;;;;;;5048375;28;20438;-49
2022/09/16 11:35:01;;;;;;;3.67;1.05;;;24.40;65.40;;;;;;5046760;28;20017;-46
2022/09/16 11:37:33;;;;;;;2.72;0.85;;;23.50;67.30;;;;;;5043581;28;20033;-50
2022/09/16 11:40:18;;;;;;;2.17;0.88;;;22.80;66.00;;;;;;5047285;28;20037;-50
2022/09/16 11:42:53;;;;;;;3.70;0.90;;;22.10;68.80;;;;;;5042757;28;20033;-52
2022/09/16 11:45:45;;;;;;;4.25;0.90;;;21.10;69.70;;;;;;5048796;28;20037;-49
2022/09/16 11:48:30;;;;;;;3.88;0.98;;;21.20;72.50;;;;;;5048169;28;20470;-54
2022/09/16 11:51:14;;;;;;;1.77;0.93;;;22.40;70.60;;;;;;5049548;28;20056;-45
2022/09/16 11:54:10;;;;;;;4.97;1.58;;;23.70;68.30;;;;;;5050527;28;20372;-45
2022/09/16 11:56:43;;;;;;;5.90;1.60;;;24.10;62.90;;;;;;5049553;28;20036;-47
2022/09/16 11:59:12;;;;;;;2.55;1.05;;;23.50;63.90;;;;;;5043969;28;20033;-46
2022/09/16 12:01:51;;;;;;;5.60;1.10;;;22.70;65.30;;;;;;5046923;28;20037;-51
2022/09/16 12:04:40;;;;;;;2.70;1.10;;;21.90;68.30;;;;;;5048462;28;20032;-44
2022/09/16 12:07:14;;;;;;;2.10;0.88;;;22.20;69.90;;;;;;5047020;28;20033;-48
2022/09/16 12:10:19;;;;;;;2.70;1.00;;;22.90;65.90;;;;;;5046025;28;20021;-47
2022/09/16 12:12:59;;;;;;;4.53;1.08;;;23.80;69.70;;;;;;5021942;28;20038;-52
2022/09/16 12:15:32;;;;;;;1.80;0.98;;;24.10;64.80;;;;;;5043328;28;20494;-46
2022/09/16 12:18:22;;;;;;;3.13;1.02;;;24.40;62.70;;;;;;5045407;28;20036;-49
2022/09/16 12:20:56;;;;;;;1.88;0.93;;;24.60;64.20;;;;;;5046178;28;20412;-50
2022/09/16 12:23:30;;;;;;;6.00;1.27;;;24.20;62.80;;;;;;5043591;28;20065;-46
2022/09/16 12:26:05;;;;;;;3.72;1.08;;;23.80;65.00;;;;;;5044554;28;20480;-50
2022/09/16 12:28:44;;;;;;;3.58;1.05;;;23.10;65.50;;;;;;5046479;28;20029;-50
2022/09/16 12:31:20;;;;;;;3.28;1.02;;;22.30;66.90;;;;;;5047585;28;20037;-51
2022/09/16 12:33:55;;;;;;;1.98;0.93;;;21.40;67.30;;;;;;5044360;28;20036;-48
2022/09/16 12:36:43;;;;;;;3.00;1.10;;;21.20;72.80;;;;;;5047477;28;20048;-45
2022/09/16 12:39:14;;;;;;;2.50;0.90;;;21.10;69.30;;;;;;5049022;28;20048;-47
2022/09/16 12:41:55;;;;;;;1.85;0.98;;;21.20;72.70;;;;;;5049009;28;20115;-44
2022/09/16 12:44:43;;;;;;;1.13;0.70;;;21.50;71.50;;;;;;5049558;28;20031;-46
2022/09/16 12:47:41;;;;;;;1.70;0.70;;;21.80;70.80;;;;;;5049387;28;20033;-50
2022/09/16 12:50:37;;;;;;;2.80;0.80;;;22.20;65.80;;;;;;5044975;28;20079;-47
2022/09/16 12:53:22;;;;;;;2.00;0.85;;;22.60;67.80;;;;;;5048124;28;20536;-45
2022/09/16 12:56:07;;;;;;;1.00;0.50;;;22.80;66.00;;;;;;5047526;28;20027;-46
2022/09/16 12:58:53;;;;;;;1.98;0.85;;;22.60;65.50;;;;;;5047304;28;20028;-45
2022/09/16 13:01:18;;;;;;;2.08;0.90;;;22.30;66.00;;;;;;5048945;28;20039;-52
2022/09/16 13:03:52;;;;;;;2.50;0.90;;;22.00;66.20;;;;;;5044367;28;20475;-50
2022/09/16 13:06:24;;;;;;;1.52;0.82;;;21.50;67.80;;;;;;5061781;28;20045;-48
2022/09/16 13:08:51;;;;;;;2.83;0.70;;;21.40;68.40;;;;;;5041251;28;20029;-48
2022/09/16 13:11:28;;;;;;;2.47;0.60;;;21.30;68.10;;;;;;5044385;28;20025;-48
2022/09/16 13:13:57;;;;;;;1.27;0.60;;;21.60;68.10;;;;;;5043684;28;20508;-48
2022/09/16 13:16:31;;;;;;;2.05;0.60;;;21.90;68.20;;;;;;5046004;28;20028;-53
2022/09/16 13:19:40;;;;;;;3.90;0.60;;;21.90;65.70;;;;;;5047717;28;20108;-55